sensor_id;sensor_type;location;lat;lon;timestamp;P1;durP1;ratioP1;P2;durP2;ratioP2
56670;SDS011;42545;50.054;8.306;2022-08-25T00:01:33;3.67;;;2.15;;
56670;SDS011;42545;50.054;8.306;2022-08-25T00:04:03;2.50;;;1.98;;
56670;SDS011;42545;50.054;8.306;2022-08-25T00:08:58;3.72;;;2.10;;
56670;SDS011;42545;50.054;8.306;2022-08-25T00:11:27;2.20;;;1.83;;
56670;SDS011;42545;50.054;8.306;2022-08-25T00:13:57;2.72;;;1.77;;
56670;SDS011;42545;50.054;8.306;2022-08-25T00:16:28;1.42;;;1.27;;
56670;SDS011;42545;50.054;8.306;2022-08-25T00:23:55;1.75;;;1.58;;
56670;SDS011;42545;50.054;8.306;2022-08-25T00:26:23;2.00;;;1.65;;
56670;SDS011;42545;50.054;8.306;2022-08-25T00:28:51;1.50;;;1.40;;
56670;SDS011;42545;50.054;8.306;2022-08-25T00:31:20;1.77;;;1.50;;
56670;SDS011;42545;50.054;8.306;2022-08-25T00:36:16;2.22;;;1.70;;
56670;SDS011;42545;50.054;8.306;2022-08-25T00:38:45;2.25;;;1.77;;
56670;SDS011;42545;50.054;8.306;2022-08-25T00:41:14;2.25;;;2.00;;
56670;SDS011;42545;50.054;8.306;2022-08-25T00:46:11;2.30;;;1.67;;
56670;SDS011;42545;50.054;8.306;2022-08-25T00:48:41;1.70;;;1.60;;
56670;SDS011;42545;50.054;8.306;2022-08-25T00:51:10;2.00;;;1.80;;
56670;SDS011;42545;50.054;8.306;2022-08-25T00:53:40;1.80;;;1.60;;
56670;SDS011;42545;50.054;8.306;2022-08-25T00:56:08;1.90;;;1.70;;
56670;SDS011;42545;50.054;8.306;2022-08-25T00:58:36;1.88;;;1.65;;
56670;SDS011;42545;50.054;8.306;2022-08-25T01:01:04;1.85;;;1.67;;
56670;SDS011;42545;50.054;8.306;2022-08-25T01:03:31;2.00;;;1.70;;
56670;SDS011;42545;50.054;8.306;2022-08-25T01:06:02;1.67;;;1.58;;
56670;SDS011;42545;50.054;8.306;2022-08-25T01:10:58;1.98;;;1.77;;
56670;SDS011;42545;50.054;8.306;2022-08-25T01:13:30;3.22;;;2.13;;
56670;SDS011;42545;50.054;8.306;2022-08-25T01:15:59;1.77;;;1.60;;
56670;SDS011;42545;50.054;8.306;2022-08-25T01:18:26;2.90;;;1.90;;
56670;SDS011;42545;50.054;8.306;2022-08-25T01:20:55;2.22;;;1.70;;
56670;SDS011;42545;50.054;8.306;2022-08-25T01:23:24;1.60;;;1.48;;
56670;SDS011;42545;50.054;8.306;2022-08-25T01:25:55;2.28;;;1.70;;
56670;SDS011;42545;50.054;8.306;2022-08-25T01:28:27;1.95;;;1.52;;
56670;SDS011;42545;50.054;8.306;2022-08-25T01:30:54;1.73;;;1.50;;
56670;SDS011;42545;50.054;8.306;2022-08-25T01:33:22;1.50;;;1.40;;
56670;SDS011;42545;50.054;8.306;2022-08-25T01:35:49;1.77;;;1.52;;
56670;SDS011;42545;50.054;8.306;2022-08-25T01:38:17;1.90;;;1.70;;
56670;SDS011;42545;50.054;8.306;2022-08-25T01:40:45;2.25;;;1.67;;
56670;SDS011;42545;50.054;8.306;2022-08-25T01:43:15;1.63;;;1.50;;
56670;SDS011;42545;50.054;8.306;2022-08-25T01:45:47;1.65;;;1.50;;
56670;SDS011;42545;50.054;8.306;2022-08-25T01:48:14;1.98;;;1.63;;
56670;SDS011;42545;50.054;8.306;2022-08-25T01:50:42;1.73;;;1.60;;
56670;SDS011;42545;50.054;8.306;2022-08-25T01:53:12;2.05;;;1.85;;
56670;SDS011;42545;50.054;8.306;2022-08-25T01:55:45;2.65;;;2.22;;
56670;SDS011;42545;50.054;8.306;2022-08-25T01:58:19;3.38;;;2.40;;
56670;SDS011;42545;50.054;8.306;2022-08-25T02:00:48;3.47;;;2.50;;
56670;SDS011;42545;50.054;8.306;2022-08-25T02:03:18;2.72;;;2.40;;
56670;SDS011;42545;50.054;8.306;2022-08-25T02:05:45;2.60;;;2.25;;
56670;SDS011;42545;50.054;8.306;2022-08-25T02:08:12;2.40;;;2.17;;
56670;SDS011;42545;50.054;8.306;2022-08-25T02:10:39;2.10;;;1.90;;
56670;SDS011;42545;50.054;8.306;2022-08-25T02:13:08;2.88;;;2.35;;
56670;SDS011;42545;50.054;8.306;2022-08-25T02:15:38;2.13;;;1.92;;
56670;SDS011;42545;50.054;8.306;2022-08-25T02:18:07;2.25;;;1.95;;
56670;SDS011;42545;50.054;8.306;2022-08-25T02:20:34;2.78;;;2.30;;
56670;SDS011;42545;50.054;8.306;2022-08-25T02:23:02;2.65;;;2.40;;
56670;SDS011;42545;50.054;8.306;2022-08-25T02:25:30;2.72;;;2.30;;
56670;SDS011;42545;50.054;8.306;2022-08-25T02:27:57;2.80;;;2.30;;
56670;SDS011;42545;50.054;8.306;2022-08-25T02:30:26;3.28;;;2.70;;
56670;SDS011;42545;50.054;8.306;2022-08-25T02:32:54;3.05;;;2.63;;
56670;SDS011;42545;50.054;8.306;2022-08-25T02:35:21;3.53;;;2.90;;
56670;SDS011;42545;50.054;8.306;2022-08-25T02:37:49;3.78;;;2.72;;
56670;SDS011;42545;50.054;8.306;2022-08-25T02:40:17;3.90;;;3.08;;
56670;SDS011;42545;50.054;8.306;2022-08-25T02:42:46;5.18;;;3.45;;
56670;SDS011;42545;50.054;8.306;2022-08-25T02:45:14;4.65;;;3.35;;
56670;SDS011;42545;50.054;8.306;2022-08-25T02:47:43;4.68;;;2.83;;
56670;SDS011;42545;50.054;8.306;2022-08-25T02:50:10;3.25;;;2.95;;
56670;SDS011;42545;50.054;8.306;2022-08-25T02:52:37;4.25;;;3.33;;
56670;SDS011;42545;50.054;8.306;2022-08-25T02:55:07;4.43;;;3.20;;
56670;SDS011;42545;50.054;8.306;2022-08-25T02:57:38;5.30;;;3.45;;
56670;SDS011;42545;50.054;8.306;2022-08-25T03:00:07;3.75;;;3.00;;
56670;SDS011;42545;50.054;8.306;2022-08-25T03:02:36;4.15;;;3.15;;
56670;SDS011;42545;50.054;8.306;2022-08-25T03:05:06;4.03;;;3.45;;
56670;SDS011;42545;50.054;8.306;2022-08-25T03:07:35;3.70;;;3.28;;
56670;SDS011;42545;50.054;8.306;2022-08-25T03:10:04;3.63;;;2.92;;
56670;SDS011;42545;50.054;8.306;2022-08-25T03:12:32;4.88;;;3.63;;
56670;SDS011;42545;50.054;8.306;2022-08-25T03:14:59;4.45;;;3.40;;
56670;SDS011;42545;50.054;8.306;2022-08-25T03:17:26;3.80;;;3.10;;
56670;SDS011;42545;50.054;8.306;2022-08-25T03:19:53;5.45;;;3.17;;
56670;SDS011;42545;50.054;8.306;2022-08-25T03:22:22;3.40;;;3.03;;
56670;SDS011;42545;50.054;8.306;2022-08-25T03:24:49;3.90;;;3.40;;
56670;SDS011;42545;50.054;8.306;2022-08-25T03:27:15;4.88;;;3.45;;
56670;SDS011;42545;50.054;8.306;2022-08-25T03:29:42;4.57;;;3.33;;
56670;SDS011;42545;50.054;8.306;2022-08-25T03:32:10;3.95;;;3.00;;
56670;SDS011;42545;50.054;8.306;2022-08-25T03:34:36;4.85;;;3.58;;
56670;SDS011;42545;50.054;8.306;2022-08-25T03:37:03;4.35;;;3.22;;
56670;SDS011;42545;50.054;8.306;2022-08-25T03:39:34;6.50;;;3.67;;
56670;SDS011;42545;50.054;8.306;2022-08-25T03:42:01;5.32;;;3.97;;
56670;SDS011;42545;50.054;8.306;2022-08-25T03:44:29;4.70;;;3.72;;
56670;SDS011;42545;50.054;8.306;2022-08-25T03:46:55;6.50;;;3.80;;
56670;SDS011;42545;50.054;8.306;2022-08-25T03:49:22;4.70;;;3.80;;
56670;SDS011;42545;50.054;8.306;2022-08-25T03:51:50;4.20;;;3.28;;
56670;SDS011;42545;50.054;8.306;2022-08-25T03:54:20;3.90;;;3.00;;
56670;SDS011;42545;50.054;8.306;2022-08-25T03:56:51;4.18;;;3.17;;
56670;SDS011;42545;50.054;8.306;2022-08-25T03:59:18;4.50;;;3.28;;
56670;SDS011;42545;50.054;8.306;2022-08-25T04:01:45;3.47;;;3.08;;
56670;SDS011;42545;50.054;8.306;2022-08-25T04:04:13;4.13;;;3.25;;
56670;SDS011;42545;50.054;8.306;2022-08-25T04:06:42;6.32;;;3.72;;
56670;SDS011;42545;50.054;8.306;2022-08-25T04:09:09;4.97;;;3.33;;
56670;SDS011;42545;50.054;8.306;2022-08-25T04:11:37;4.22;;;3.08;;
56670;SDS011;42545;50.054;8.306;2022-08-25T04:14:05;3.35;;;3.03;;
56670;SDS011;42545;50.054;8.306;2022-08-25T04:16:33;3.70;;;3.25;;
56670;SDS011;42545;50.054;8.306;2022-08-25T04:19:01;4.38;;;2.70;;
56670;SDS011;42545;50.054;8.306;2022-08-25T04:21:32;3.08;;;2.70;;
56670;SDS011;42545;50.054;8.306;2022-08-25T04:23:59;2.97;;;2.50;;
56670;SDS011;42545;50.054;8.306;2022-08-25T04:26:27;4.28;;;2.67;;
56670;SDS011;42545;50.054;8.306;2022-08-25T04:28:55;3.03;;;2.65;;
56670;SDS011;42545;50.054;8.306;2022-08-25T04:31:26;2.83;;;2.30;;
56670;SDS011;42545;50.054;8.306;2022-08-25T04:33:54;2.63;;;2.17;;
56670;SDS011;42545;50.054;8.306;2022-08-25T04:36:21;3.20;;;2.03;;
56670;SDS011;42545;50.054;8.306;2022-08-25T04:38:49;2.72;;;2.40;;
56670;SDS011;42545;50.054;8.306;2022-08-25T04:41:17;2.10;;;1.80;;
56670;SDS011;42545;50.054;8.306;2022-08-25T04:43:44;2.88;;;2.20;;
56670;SDS011;42545;50.054;8.306;2022-08-25T04:46:12;2.28;;;2.08;;
56670;SDS011;42545;50.054;8.306;2022-08-25T04:48:41;2.72;;;2.22;;
56670;SDS011;42545;50.054;8.306;2022-08-25T04:51:09;3.20;;;2.35;;
56670;SDS011;42545;50.054;8.306;2022-08-25T04:56:06;3.13;;;2.72;;
56670;SDS011;42545;50.054;8.306;2022-08-25T04:58:34;3.30;;;2.80;;
56670;SDS011;42545;50.054;8.306;2022-08-25T05:01:01;4.15;;;3.40;;
56670;SDS011;42545;50.054;8.306;2022-08-25T05:03:28;4.15;;;3.20;;
56670;SDS011;42545;50.054;8.306;2022-08-25T05:05:57;4.45;;;4.03;;
56670;SDS011;42545;50.054;8.306;2022-08-25T05:08:24;4.50;;;3.90;;
56670;SDS011;42545;50.054;8.306;2022-08-25T05:10:51;7.05;;;4.03;;
56670;SDS011;42545;50.054;8.306;2022-08-25T05:13:20;5.03;;;3.78;;
56670;SDS011;42545;50.054;8.306;2022-08-25T05:15:52;4.82;;;3.72;;
56670;SDS011;42545;50.054;8.306;2022-08-25T05:18:19;5.43;;;4.30;;
56670;SDS011;42545;50.054;8.306;2022-08-25T05:20:48;5.05;;;4.50;;
56670;SDS011;42545;50.054;8.306;2022-08-25T05:23:17;5.95;;;4.70;;
56670;SDS011;42545;50.054;8.306;2022-08-25T05:25:44;5.47;;;4.15;;
56670;SDS011;42545;50.054;8.306;2022-08-25T05:28:13;6.38;;;4.78;;
56670;SDS011;42545;50.054;8.306;2022-08-25T05:30:43;4.28;;;3.70;;
56670;SDS011;42545;50.054;8.306;2022-08-25T05:33:13;5.75;;;4.20;;
56670;SDS011;42545;50.054;8.306;2022-08-25T05:35:41;4.45;;;4.00;;
56670;SDS011;42545;50.054;8.306;2022-08-25T05:38:09;5.20;;;4.70;;
56670;SDS011;42545;50.054;8.306;2022-08-25T05:40:39;5.63;;;4.53;;
56670;SDS011;42545;50.054;8.306;2022-08-25T05:43:06;5.65;;;4.53;;
56670;SDS011;42545;50.054;8.306;2022-08-25T05:45:33;5.35;;;4.70;;
56670;SDS011;42545;50.054;8.306;2022-08-25T05:48:00;6.15;;;5.35;;
56670;SDS011;42545;50.054;8.306;2022-08-25T05:50:27;6.30;;;5.10;;
56670;SDS011;42545;50.054;8.306;2022-08-25T05:52:54;5.15;;;4.50;;
56670;SDS011;42545;50.054;8.306;2022-08-25T05:55:20;7.75;;;5.35;;
56670;SDS011;42545;50.054;8.306;2022-08-25T05:57:49;8.30;;;6.10;;
56670;SDS011;42545;50.054;8.306;2022-08-25T06:00:18;6.32;;;5.05;;
56670;SDS011;42545;50.054;8.306;2022-08-25T06:02:45;9.25;;;6.43;;
56670;SDS011;42545;50.054;8.306;2022-08-25T06:05:14;6.68;;;4.85;;
56670;SDS011;42545;50.054;8.306;2022-08-25T06:07:48;8.20;;;5.93;;
56670;SDS011;42545;50.054;8.306;2022-08-25T06:10:17;9.13;;;5.40;;
56670;SDS011;42545;50.054;8.306;2022-08-25T06:12:46;6.32;;;5.20;;
56670;SDS011;42545;50.054;8.306;2022-08-25T06:15:16;6.07;;;5.45;;
56670;SDS011;42545;50.054;8.306;2022-08-25T06:20:12;7.55;;;5.70;;
56670;SDS011;42545;50.054;8.306;2022-08-25T06:22:41;8.35;;;5.70;;
56670;SDS011;42545;50.054;8.306;2022-08-25T06:25:10;5.93;;;5.05;;
56670;SDS011;42545;50.054;8.306;2022-08-25T06:27:39;7.47;;;5.20;;
56670;SDS011;42545;50.054;8.306;2022-08-25T06:30:09;6.70;;;5.05;;
56670;SDS011;42545;50.054;8.306;2022-08-25T06:32:39;8.75;;;6.63;;
56670;SDS011;42545;50.054;8.306;2022-08-25T06:35:09;10.88;;;5.18;;
56670;SDS011;42545;50.054;8.306;2022-08-25T06:37:37;6.68;;;4.72;;
56670;SDS011;42545;50.054;8.306;2022-08-25T06:40:06;6.35;;;5.13;;
56670;SDS011;42545;50.054;8.306;2022-08-25T06:42:34;6.43;;;4.93;;
56670;SDS011;42545;50.054;8.306;2022-08-25T06:45:02;6.95;;;5.72;;
56670;SDS011;42545;50.054;8.306;2022-08-25T06:47:34;8.27;;;6.22;;
56670;SDS011;42545;50.054;8.306;2022-08-25T06:52:29;7.82;;;5.70;;
56670;SDS011;42545;50.054;8.306;2022-08-25T06:54:58;7.30;;;5.65;;
56670;SDS011;42545;50.054;8.306;2022-08-25T06:57:30;6.82;;;5.10;;
56670;SDS011;42545;50.054;8.306;2022-08-25T07:00:03;5.30;;;4.63;;
56670;SDS011;42545;50.054;8.306;2022-08-25T07:02:33;7.00;;;5.35;;
56670;SDS011;42545;50.054;8.306;2022-08-25T07:05:02;6.28;;;4.97;;
56670;SDS011;42545;50.054;8.306;2022-08-25T07:07:29;13.00;;;5.22;;
56670;SDS011;42545;50.054;8.306;2022-08-25T07:09:57;10.23;;;6.70;;
56670;SDS011;42545;50.054;8.306;2022-08-25T07:12:24;6.40;;;5.70;;
56670;SDS011;42545;50.054;8.306;2022-08-25T07:14:57;7.93;;;5.88;;
56670;SDS011;42545;50.054;8.306;2022-08-25T07:17:24;6.95;;;5.80;;
56670;SDS011;42545;50.054;8.306;2022-08-25T07:19:54;8.48;;;5.85;;
56670;SDS011;42545;50.054;8.306;2022-08-25T07:22:20;9.30;;;5.22;;
56670;SDS011;42545;50.054;8.306;2022-08-25T07:24:47;7.30;;;5.75;;
56670;SDS011;42545;50.054;8.306;2022-08-25T07:27:15;6.07;;;5.10;;
56670;SDS011;42545;50.054;8.306;2022-08-25T07:29:44;6.97;;;5.18;;
56670;SDS011;42545;50.054;8.306;2022-08-25T07:35:22;10.40;;;6.32;;
56670;SDS011;42545;50.054;8.306;2022-08-25T07:37:53;8.27;;;5.55;;
56670;SDS011;42545;50.054;8.306;2022-08-25T07:40:24;6.43;;;5.15;;
56670;SDS011;42545;50.054;8.306;2022-08-25T07:42:55;6.95;;;5.60;;
56670;SDS011;42545;50.054;8.306;2022-08-25T07:45:25;7.35;;;6.15;;
56670;SDS011;42545;50.054;8.306;2022-08-25T07:47:55;6.57;;;5.38;;
56670;SDS011;42545;50.054;8.306;2022-08-25T07:50:25;7.20;;;5.10;;
56670;SDS011;42545;50.054;8.306;2022-08-25T07:52:53;6.63;;;5.80;;
56670;SDS011;42545;50.054;8.306;2022-08-25T07:57:50;8.40;;;5.68;;
56670;SDS011;42545;50.054;8.306;2022-08-25T08:00:17;6.35;;;5.70;;
56670;SDS011;42545;50.054;8.306;2022-08-25T08:02:51;8.88;;;6.22;;
56670;SDS011;42545;50.054;8.306;2022-08-25T08:05:21;6.88;;;5.03;;
56670;SDS011;42545;50.054;8.306;2022-08-25T08:07:49;7.93;;;5.85;;
56670;SDS011;42545;50.054;8.306;2022-08-25T08:10:17;8.13;;;5.70;;
56670;SDS011;42545;50.054;8.306;2022-08-25T08:12:44;7.97;;;5.43;;
56670;SDS011;42545;50.054;8.306;2022-08-25T08:15:11;8.60;;;5.20;;
56670;SDS011;42545;50.054;8.306;2022-08-25T08:17:39;10.90;;;5.68;;
56670;SDS011;42545;50.054;8.306;2022-08-25T08:20:08;9.02;;;6.05;;
56670;SDS011;42545;50.054;8.306;2022-08-25T08:22:39;5.68;;;5.05;;
56670;SDS011;42545;50.054;8.306;2022-08-25T08:25:11;7.25;;;5.00;;
56670;SDS011;42545;50.054;8.306;2022-08-25T08:27:38;5.93;;;5.20;;
56670;SDS011;42545;50.054;8.306;2022-08-25T08:30:07;8.18;;;5.13;;
56670;SDS011;42545;50.054;8.306;2022-08-25T08:32:36;8.80;;;5.90;;
56670;SDS011;42545;50.054;8.306;2022-08-25T08:35:05;6.63;;;5.15;;
56670;SDS011;42545;50.054;8.306;2022-08-25T08:37:43;8.52;;;5.28;;
56670;SDS011;42545;50.054;8.306;2022-08-25T08:40:13;5.95;;;4.97;;
56670;SDS011;42545;50.054;8.306;2022-08-25T08:42:48;6.55;;;5.18;;
56670;SDS011;42545;50.054;8.306;2022-08-25T08:45:27;6.93;;;5.32;;
56670;SDS011;42545;50.054;8.306;2022-08-25T08:48:37;7.20;;;5.82;;
56670;SDS011;42545;50.054;8.306;2022-08-25T08:51:13;7.05;;;5.43;;
56670;SDS011;42545;50.054;8.306;2022-08-25T08:53:47;6.30;;;5.20;;
56670;SDS011;42545;50.054;8.306;2022-08-25T08:56:22;6.63;;;5.57;;
56670;SDS011;42545;50.054;8.306;2022-08-25T08:58:58;6.28;;;5.00;;
56670;SDS011;42545;50.054;8.306;2022-08-25T09:01:29;8.55;;;5.78;;
56670;SDS011;42545;50.054;8.306;2022-08-25T09:04:02;7.75;;;5.47;;
56670;SDS011;42545;50.054;8.306;2022-08-25T09:06:35;7.10;;;5.50;;
56670;SDS011;42545;50.054;8.306;2022-08-25T09:09:07;7.00;;;5.35;;
56670;SDS011;42545;50.054;8.306;2022-08-25T09:11:44;7.90;;;5.63;;
56670;SDS011;42545;50.054;8.306;2022-08-25T09:14:25;6.53;;;4.82;;
56670;SDS011;42545;50.054;8.306;2022-08-25T09:17:03;9.38;;;5.82;;
56670;SDS011;42545;50.054;8.306;2022-08-25T09:19:42;11.50;;;5.82;;
56670;SDS011;42545;50.054;8.306;2022-08-25T09:22:23;6.28;;;4.70;;
56670;SDS011;42545;50.054;8.306;2022-08-25T09:25:04;8.15;;;5.32;;
56670;SDS011;42545;50.054;8.306;2022-08-25T09:27:57;6.28;;;5.30;;
56670;SDS011;42545;50.054;8.306;2022-08-25T09:30:35;6.20;;;4.97;;
56670;SDS011;42545;50.054;8.306;2022-08-25T09:33:17;7.25;;;5.35;;
56670;SDS011;42545;50.054;8.306;2022-08-25T09:35:46;6.38;;;5.32;;
56670;SDS011;42545;50.054;8.306;2022-08-25T09:38:17;8.18;;;5.90;;
56670;SDS011;42545;50.054;8.306;2022-08-25T09:40:45;5.17;;;4.67;;
56670;SDS011;42545;50.054;8.306;2022-08-25T09:43:19;5.90;;;5.30;;
56670;SDS011;42545;50.054;8.306;2022-08-25T09:45:57;7.15;;;5.43;;
56670;SDS011;42545;50.054;8.306;2022-08-25T09:48:27;7.95;;;5.45;;
56670;SDS011;42545;50.054;8.306;2022-08-25T09:51:09;7.07;;;5.15;;
56670;SDS011;42545;50.054;8.306;2022-08-25T09:53:45;7.13;;;5.53;;
56670;SDS011;42545;50.054;8.306;2022-08-25T09:56:20;8.82;;;6.05;;
56670;SDS011;42545;50.054;8.306;2022-08-25T09:58:50;5.57;;;5.00;;
56670;SDS011;42545;50.054;8.306;2022-08-25T10:01:18;6.47;;;5.45;;
56670;SDS011;42545;50.054;8.306;2022-08-25T10:03:54;7.60;;;5.55;;
56670;SDS011;42545;50.054;8.306;2022-08-25T10:06:24;7.97;;;5.95;;
56670;SDS011;42545;50.054;8.306;2022-08-25T10:08:55;6.30;;;5.05;;
56670;SDS011;42545;50.054;8.306;2022-08-25T10:11:32;7.93;;;5.20;;
56670;SDS011;42545;50.054;8.306;2022-08-25T10:14:13;8.45;;;5.97;;
56670;SDS011;42545;50.054;8.306;2022-08-25T10:16:43;14.52;;;6.35;;
56670;SDS011;42545;50.054;8.306;2022-08-25T10:19:12;9.32;;;6.30;;
56670;SDS011;42545;50.054;8.306;2022-08-25T10:22:02;7.70;;;5.50;;
56670;SDS011;42545;50.054;8.306;2022-08-25T10:24:31;9.63;;;5.90;;
56670;SDS011;42545;50.054;8.306;2022-08-25T10:27:04;6.10;;;5.50;;
56670;SDS011;42545;50.054;8.306;2022-08-25T10:29:50;10.20;;;5.68;;
56670;SDS011;42545;50.054;8.306;2022-08-25T10:32:27;8.07;;;5.22;;
56670;SDS011;42545;50.054;8.306;2022-08-25T10:35:12;7.78;;;5.85;;
56670;SDS011;42545;50.054;8.306;2022-08-25T10:37:44;6.15;;;5.50;;
56670;SDS011;42545;50.054;8.306;2022-08-25T10:40:26;7.93;;;5.65;;
56670;SDS011;42545;50.054;8.306;2022-08-25T10:45:35;9.07;;;5.70;;
56670;SDS011;42545;50.054;8.306;2022-08-25T10:48:24;8.10;;;5.75;;
56670;SDS011;42545;50.054;8.306;2022-08-25T10:51:00;7.75;;;5.65;;
56670;SDS011;42545;50.054;8.306;2022-08-25T10:53:39;7.05;;;5.85;;
56670;SDS011;42545;50.054;8.306;2022-08-25T10:56:15;6.15;;;5.53;;
56670;SDS011;42545;50.054;8.306;2022-08-25T10:58:51;7.47;;;5.18;;
56670;SDS011;42545;50.054;8.306;2022-08-25T11:01:31;6.85;;;5.38;;
56670;SDS011;42545;50.054;8.306;2022-08-25T11:04:08;6.88;;;5.00;;
56670;SDS011;42545;50.054;8.306;2022-08-25T11:06:41;5.63;;;4.50;;
56670;SDS011;42545;50.054;8.306;2022-08-25T11:09:14;5.15;;;4.68;;
56670;SDS011;42545;50.054;8.306;2022-08-25T11:11:46;5.10;;;4.38;;
56670;SDS011;42545;50.054;8.306;2022-08-25T11:14:21;6.93;;;5.30;;
56670;SDS011;42545;50.054;8.306;2022-08-25T11:19:43;6.50;;;5.20;;
56670;SDS011;42545;50.054;8.306;2022-08-25T11:22:13;5.88;;;4.78;;
56670;SDS011;42545;50.054;8.306;2022-08-25T11:24:58;6.15;;;5.10;;
56670;SDS011;42545;50.054;8.306;2022-08-25T11:27:36;6.47;;;4.80;;
56670;SDS011;42545;50.054;8.306;2022-08-25T11:30:09;6.65;;;4.68;;
56670;SDS011;42545;50.054;8.306;2022-08-25T11:32:43;5.82;;;4.90;;
56670;SDS011;42545;50.054;8.306;2022-08-25T11:35:13;5.50;;;4.55;;
56670;SDS011;42545;50.054;8.306;2022-08-25T11:37:52;6.35;;;5.22;;
56670;SDS011;42545;50.054;8.306;2022-08-25T11:40:33;8.15;;;5.35;;
56670;SDS011;42545;50.054;8.306;2022-08-25T11:43:09;5.43;;;4.63;;
56670;SDS011;42545;50.054;8.306;2022-08-25T11:45:50;6.15;;;5.07;;
56670;SDS011;42545;50.054;8.306;2022-08-25T11:51:27;5.90;;;4.60;;
56670;SDS011;42545;50.054;8.306;2022-08-25T11:54:14;4.72;;;4.32;;
56670;SDS011;42545;50.054;8.306;2022-08-25T11:56:52;7.00;;;4.97;;
56670;SDS011;42545;50.054;8.306;2022-08-25T12:02:29;5.85;;;4.70;;
56670;SDS011;42545;50.054;8.306;2022-08-25T12:05:00;6.78;;;5.22;;
56670;SDS011;42545;50.054;8.306;2022-08-25T12:10:51;5.05;;;4.55;;
56670;SDS011;42545;50.054;8.306;2022-08-25T12:13:26;6.55;;;5.25;;
56670;SDS011;42545;50.054;8.306;2022-08-25T12:16:05;5.68;;;5.18;;
56670;SDS011;42545;50.054;8.306;2022-08-25T12:18:52;6.20;;;4.97;;
56670;SDS011;42545;50.054;8.306;2022-08-25T12:21:30;7.53;;;5.22;;
56670;SDS011;42545;50.054;8.306;2022-08-25T12:24:08;5.18;;;4.68;;
56670;SDS011;42545;50.054;8.306;2022-08-25T12:26:40;7.32;;;5.03;;
56670;SDS011;42545;50.054;8.306;2022-08-25T12:29:15;5.82;;;4.70;;
56670;SDS011;42545;50.054;8.306;2022-08-25T12:32:12;6.97;;;4.88;;
56670;SDS011;42545;50.054;8.306;2022-08-25T12:34:53;6.20;;;4.78;;
56670;SDS011;42545;50.054;8.306;2022-08-25T12:40:27;8.45;;;5.70;;
56670;SDS011;42545;50.054;8.306;2022-08-25T12:43:08;8.18;;;5.93;;
56670;SDS011;42545;50.054;8.306;2022-08-25T12:45:41;5.63;;;5.13;;
56670;SDS011;42545;50.054;8.306;2022-08-25T12:51:47;5.00;;;4.35;;
56670;SDS011;42545;50.054;8.306;2022-08-25T12:54:21;9.27;;;5.00;;
56670;SDS011;42545;50.054;8.306;2022-08-25T12:56:56;5.75;;;4.78;;
56670;SDS011;42545;50.054;8.306;2022-08-25T12:59:40;6.40;;;4.82;;
56670;SDS011;42545;50.054;8.306;2022-08-25T13:02:34;6.80;;;5.05;;
56670;SDS011;42545;50.054;8.306;2022-08-25T13:05:36;5.07;;;4.55;;
56670;SDS011;42545;50.054;8.306;2022-08-25T13:08:19;6.53;;;4.90;;
56670;SDS011;42545;50.054;8.306;2022-08-25T13:11:00;6.85;;;5.05;;
56670;SDS011;42545;50.054;8.306;2022-08-25T13:13:39;7.63;;;6.05;;
56670;SDS011;42545;50.054;8.306;2022-08-25T13:16:15;7.82;;;5.55;;
56670;SDS011;42545;50.054;8.306;2022-08-25T13:18:44;5.95;;;5.32;;
56670;SDS011;42545;50.054;8.306;2022-08-25T13:21:12;9.07;;;5.65;;
56670;SDS011;42545;50.054;8.306;2022-08-25T13:23:46;5.50;;;5.00;;
56670;SDS011;42545;50.054;8.306;2022-08-25T13:26:20;5.80;;;5.00;;
56670;SDS011;42545;50.054;8.306;2022-08-25T13:28:54;6.55;;;5.47;;
56670;SDS011;42545;50.054;8.306;2022-08-25T13:31:23;6.07;;;5.03;;
56670;SDS011;42545;50.054;8.306;2022-08-25T13:34:01;5.88;;;4.85;;
56670;SDS011;42545;50.054;8.306;2022-08-25T13:36:30;4.75;;;4.30;;
56670;SDS011;42545;50.054;8.306;2022-08-25T13:39:24;5.38;;;4.00;;
56670;SDS011;42545;50.054;8.306;2022-08-25T13:41:54;5.57;;;4.70;;
56670;SDS011;42545;50.054;8.306;2022-08-25T13:44:27;6.75;;;5.03;;
56670;SDS011;42545;50.054;8.306;2022-08-25T13:47:06;5.20;;;4.70;;
56670;SDS011;42545;50.054;8.306;2022-08-25T13:50:19;4.43;;;4.03;;
56670;SDS011;42545;50.054;8.306;2022-08-25T13:52:56;5.15;;;4.65;;
56670;SDS011;42545;50.054;8.306;2022-08-25T13:55:27;6.25;;;4.90;;
56670;SDS011;42545;50.054;8.306;2022-08-25T13:57:59;5.88;;;4.28;;
56670;SDS011;42545;50.054;8.306;2022-08-25T14:00:33;4.65;;;4.05;;
56670;SDS011;42545;50.054;8.306;2022-08-25T14:03:06;5.43;;;4.03;;
56670;SDS011;42545;50.054;8.306;2022-08-25T14:05:35;3.90;;;3.50;;
56670;SDS011;42545;50.054;8.306;2022-08-25T14:08:05;4.88;;;3.50;;
56670;SDS011;42545;50.054;8.306;2022-08-25T14:11:00;3.53;;;3.22;;
56670;SDS011;42545;50.054;8.306;2022-08-25T14:13:31;4.75;;;3.80;;
56670;SDS011;42545;50.054;8.306;2022-08-25T14:16:07;5.18;;;4.05;;
56670;SDS011;42545;50.054;8.306;2022-08-25T14:18:37;6.43;;;3.97;;
56670;SDS011;42545;50.054;8.306;2022-08-25T14:21:08;6.97;;;4.18;;
56670;SDS011;42545;50.054;8.306;2022-08-25T14:23:36;5.88;;;4.30;;
56670;SDS011;42545;50.054;8.306;2022-08-25T14:26:04;4.60;;;4.15;;
56670;SDS011;42545;50.054;8.306;2022-08-25T14:28:34;5.00;;;4.50;;
56670;SDS011;42545;50.054;8.306;2022-08-25T14:31:04;5.72;;;4.00;;
56670;SDS011;42545;50.054;8.306;2022-08-25T14:33:38;4.38;;;3.97;;
56670;SDS011;42545;50.054;8.306;2022-08-25T14:36:07;4.35;;;3.80;;
56670;SDS011;42545;50.054;8.306;2022-08-25T14:38:35;4.20;;;3.75;;
56670;SDS011;42545;50.054;8.306;2022-08-25T14:41:03;5.18;;;4.00;;
56670;SDS011;42545;50.054;8.306;2022-08-25T14:43:31;5.33;;;4.10;;
56670;SDS011;42545;50.054;8.306;2022-08-25T14:45:58;5.40;;;3.70;;
56670;SDS011;42545;50.054;8.306;2022-08-25T14:48:28;3.97;;;3.58;;
56670;SDS011;42545;50.054;8.306;2022-08-25T14:50:59;3.90;;;3.50;;
56670;SDS011;42545;50.054;8.306;2022-08-25T14:53:30;5.03;;;3.90;;
56670;SDS011;42545;50.054;8.306;2022-08-25T14:55:57;3.80;;;3.33;;
56670;SDS011;42545;50.054;8.306;2022-08-25T14:58:24;4.35;;;3.42;;
56670;SDS011;42545;50.054;8.306;2022-08-25T15:00:51;5.45;;;3.75;;
56670;SDS011;42545;50.054;8.306;2022-08-25T15:03:26;4.03;;;3.47;;
56670;SDS011;42545;50.054;8.306;2022-08-25T15:05:56;4.07;;;3.22;;
56670;SDS011;42545;50.054;8.306;2022-08-25T15:08:25;4.90;;;3.40;;
56670;SDS011;42545;50.054;8.306;2022-08-25T15:11:13;4.18;;;3.72;;
56670;SDS011;42545;50.054;8.306;2022-08-25T15:13:40;3.92;;;3.17;;
56670;SDS011;42545;50.054;8.306;2022-08-25T15:16:09;3.72;;;3.25;;
56670;SDS011;42545;50.054;8.306;2022-08-25T15:21:05;4.30;;;3.90;;
56670;SDS011;42545;50.054;8.306;2022-08-25T15:23:34;4.68;;;4.13;;
56670;SDS011;42545;50.054;8.306;2022-08-25T15:26:00;4.43;;;4.00;;
56670;SDS011;42545;50.054;8.306;2022-08-25T15:28:27;8.13;;;4.20;;
56670;SDS011;42545;50.054;8.306;2022-08-25T15:30:54;5.68;;;3.70;;
56670;SDS011;42545;50.054;8.306;2022-08-25T15:33:21;6.53;;;4.72;;
56670;SDS011;42545;50.054;8.306;2022-08-25T15:35:47;3.75;;;3.30;;
56670;SDS011;42545;50.054;8.306;2022-08-25T15:38:14;3.78;;;3.38;;
56670;SDS011;42545;50.054;8.306;2022-08-25T15:40:42;3.40;;;3.10;;
56670;SDS011;42545;50.054;8.306;2022-08-25T15:43:09;3.40;;;3.10;;
56670;SDS011;42545;50.054;8.306;2022-08-25T15:45:37;3.47;;;3.15;;
56670;SDS011;42545;50.054;8.306;2022-08-25T15:48:04;4.20;;;3.80;;
56670;SDS011;42545;50.054;8.306;2022-08-25T15:50:31;3.97;;;3.15;;
56670;SDS011;42545;50.054;8.306;2022-08-25T15:53:01;3.70;;;3.40;;
56670;SDS011;42545;50.054;8.306;2022-08-25T15:55:28;4.20;;;3.00;;
56670;SDS011;42545;50.054;8.306;2022-08-25T15:57:56;3.47;;;3.17;;
56670;SDS011;42545;50.054;8.306;2022-08-25T16:00:23;4.28;;;3.28;;
56670;SDS011;42545;50.054;8.306;2022-08-25T16:02:50;3.50;;;3.05;;
56670;SDS011;42545;50.054;8.306;2022-08-25T16:05:17;3.40;;;3.03;;